createdAt,value
2023-11-23T00:01:36.758Z,101490.78
2023-11-23T00:04:06.562Z,101490.59
2023-11-23T00:06:34.628Z,101495.00
2023-11-23T00:09:02.584Z,101496.25
2023-11-23T00:11:30.565Z,101478.88
2023-11-23T00:13:58.514Z,101480.50
2023-11-23T00:16:26.614Z,101474.13
2023-11-23T00:18:54.631Z,101473.31
2023-11-23T00:21:23.983Z,101474.69
2023-11-23T00:23:52.595Z,101465.66
2023-11-23T00:26:20.554Z,101461.66
2023-11-23T00:28:57.690Z,101464.78
2023-11-23T00:31:25.697Z,101457.28
2023-11-23T00:33:53.829Z,101451.72
2023-11-23T00:36:21.909Z,101439.41
2023-11-23T00:38:51.338Z,101453.97
2023-11-23T00:41:19.334Z,101448.78
2023-11-23T00:43:47.318Z,101449.75
2023-11-23T00:46:15.893Z,101445.03
2023-11-23T00:48:44.130Z,101449.75
2023-11-23T00:51:12.213Z,101446.22
2023-11-23T00:53:40.722Z,101445.84
2023-11-23T00:56:10.405Z,101453.41
2023-11-23T00:58:38.410Z,101442.69
2023-11-23T01:01:06.475Z,101459.19
2023-11-23T01:03:34.552Z,101455.53
2023-11-23T01:06:02.601Z,101450.91
2023-11-23T01:08:30.563Z,101451.94
2023-11-23T01:11:00.362Z,101443.25
2023-11-23T01:13:30.402Z,101437.13
2023-11-23T01:15:57.780Z,101442.81
2023-11-23T01:18:26.011Z,101431.69
2023-11-23T01:20:54.093Z,101433.84
2023-11-23T01:23:23.173Z,101438.94
2023-11-23T01:25:51.191Z,101421.88
2023-11-23T01:28:19.271Z,101406.66
2023-11-23T01:30:48.593Z,101410.59
2023-11-23T01:33:16.839Z,101420.97
2023-11-23T01:35:45.434Z,101415.84
2023-11-23T01:38:13.436Z,101412.13
2023-11-23T01:40:41.422Z,101417.00
2023-11-23T01:43:11.001Z,101421.63
2023-11-23T01:45:39.469Z,101417.28
2023-11-23T01:48:09.094Z,101408.97
2023-11-23T01:50:38.329Z,101408.47
2023-11-23T01:53:06.539Z,101417.00
2023-11-23T01:55:34.509Z,101415.19
2023-11-23T01:58:04.126Z,101416.03
2023-11-23T02:00:32.814Z,101412.75
2023-11-23T02:03:01.955Z,101420.63
2023-11-23T02:05:31.352Z,101415.28
2023-11-23T02:07:59.316Z,101415.91
2023-11-23T02:10:28.841Z,101426.00
2023-11-23T02:12:57.815Z,101425.88
2023-11-23T02:15:25.802Z,101421.56
2023-11-23T02:18:03.110Z,101418.03
2023-11-23T02:20:33.047Z,101419.94
2023-11-23T02:23:02.061Z,101426.28
2023-11-23T02:25:32.341Z,101418.56
2023-11-23T02:28:00.445Z,101418.50
2023-11-23T02:30:28.547Z,101410.91
2023-11-23T02:32:57.376Z,101407.59
2023-11-23T02:35:25.545Z,101414.66
2023-11-23T02:37:53.534Z,101407.84
2023-11-23T02:40:21.661Z,101399.06
2023-11-23T02:42:51.141Z,101391.25
2023-11-23T02:45:19.009Z,101380.41
2023-11-23T02:47:47.060Z,101391.88
2023-11-23T02:50:15.056Z,101389.38
2023-11-23T02:52:43.254Z,101385.88
2023-11-23T02:55:12.253Z,101386.09
2023-11-23T02:57:40.476Z,101394.78
2023-11-23T03:00:11.126Z,101391.31
2023-11-23T03:02:39.141Z,101388.31
2023-11-23T03:05:08.074Z,101378.97
2023-11-23T03:07:36.309Z,101382.03
2023-11-23T03:10:04.355Z,101379.69
2023-11-23T03:12:33.294Z,101369.38
2023-11-23T03:15:01.274Z,101379.91
2023-11-23T03:17:30.673Z,101374.25
2023-11-23T03:19:58.805Z,101366.28
2023-11-23T03:22:26.797Z,101366.81
2023-11-23T03:24:56.339Z,101363.66
2023-11-23T03:27:24.320Z,101370.88
2023-11-23T03:29:52.699Z,101377.63
2023-11-23T03:32:20.728Z,101358.97
2023-11-23T03:34:50.063Z,101359.63
2023-11-23T03:37:18.196Z,101362.25
2023-11-23T03:39:46.577Z,101361.16
2023-11-23T03:42:14.579Z,101349.84
2023-11-23T03:44:42.617Z,101343.53
2023-11-23T03:47:10.650Z,101344.50
2023-11-23T03:49:38.588Z,101347.09
2023-11-23T03:52:08.914Z,101350.41
2023-11-23T03:54:37.101Z,101341.81
2023-11-23T03:57:05.833Z,101335.75
2023-11-23T03:59:33.904Z,101330.16
2023-11-23T04:02:01.918Z,101327.19
2023-11-23T04:04:30.143Z,101331.44
2023-11-23T04:06:59.419Z,101318.75
2023-11-23T04:09:29.063Z,101316.16
2023-11-23T04:11:57.058Z,101320.97
2023-11-23T04:14:25.006Z,101317.13
2023-11-23T04:16:53.559Z,101318.28
2023-11-23T04:19:21.534Z,101322.16
2023-11-23T04:21:49.878Z,101306.44
2023-11-23T04:24:17.862Z,101303.94
2023-11-23T04:26:47.189Z,101308.03
2023-11-23T04:29:15.278Z,101308.16
2023-11-23T04:31:43.233Z,101302.03
2023-11-23T04:34:11.267Z,101303.38
2023-11-23T04:36:39.267Z,101298.25
2023-11-23T04:39:07.422Z,101307.44
2023-11-23T04:41:35.454Z,101308.16
2023-11-23T04:44:04.929Z,101316.06
2023-11-23T04:46:32.745Z,101312.06
2023-11-23T04:49:00.797Z,101323.63
2023-11-23T04:51:28.712Z,101321.31
2023-11-23T04:53:58.038Z,101318.56
2023-11-23T04:56:25.912Z,101325.94
2023-11-23T04:58:53.882Z,101327.97
2023-11-23T05:01:23.151Z,101329.09
2023-11-23T05:03:51.275Z,101321.13
2023-11-23T05:06:19.351Z,101326.06
2023-11-23T05:08:47.779Z,101321.41
2023-11-23T05:11:15.852Z,101310.69
2023-11-23T05:13:43.817Z,101300.09
2023-11-23T05:16:11.784Z,101294.66
2023-11-23T05:18:44.370Z,101297.13
2023-11-23T05:21:12.772Z,101300.03
2023-11-23T05:23:40.784Z,101300.94
2023-11-23T05:26:08.752Z,101302.38
2023-11-23T05:28:37.054Z,101292.38
2023-11-23T05:31:05.357Z,101288.69
2023-11-23T05:33:33.471Z,101279.28
2023-11-23T05:36:03.264Z,101277.09
2023-11-23T05:38:31.615Z,101280.66
2023-11-23T05:40:59.572Z,101283.13
2023-11-23T05:43:27.537Z,101279.34
2023-11-23T05:45:55.535Z,101284.06
2023-11-23T05:48:23.555Z,101291.75
2023-11-23T05:50:51.567Z,101291.97
2023-11-23T05:53:20.913Z,101285.00
2023-11-23T05:55:48.718Z,101285.25
2023-11-23T05:58:16.702Z,101277.69
2023-11-23T06:00:44.673Z,101280.84
2023-11-23T06:03:12.990Z,101276.75
2023-11-23T06:05:41.141Z,101287.03
2023-11-23T06:08:09.124Z,101274.97
2023-11-23T06:10:38.692Z,101279.91
2023-11-23T06:13:07.032Z,101266.50
2023-11-23T06:15:34.989Z,101278.88
2023-11-23T06:18:11.121Z,101282.97
2023-11-23T06:20:42.043Z,101273.59
2023-11-23T06:23:10.505Z,101268.22
2023-11-23T06:25:40.332Z,101256.16
2023-11-23T06:28:15.078Z,101265.75
2023-11-23T06:30:46.191Z,101267.31
2023-11-23T06:33:14.767Z,101264.41
2023-11-23T06:35:43.048Z,101257.63
2023-11-23T06:38:11.155Z,101274.00
2023-11-23T06:40:40.427Z,101260.97
2023-11-23T06:43:08.355Z,101265.84
2023-11-23T06:45:36.369Z,101260.84
2023-11-23T06:48:04.619Z,101242.63
2023-11-23T06:50:33.792Z,101251.63
2023-11-23T06:53:01.720Z,101246.25
2023-11-23T06:55:29.634Z,101250.19
2023-11-23T06:57:58.928Z,101243.59
2023-11-23T07:00:27.020Z,101235.38
2023-11-23T07:02:57.360Z,101232.09
2023-11-23T07:05:25.871Z,101236.81
2023-11-23T07:07:54.430Z,101241.91
2023-11-23T07:10:23.289Z,101245.34
2023-11-23T07:12:51.739Z,101219.72
2023-11-23T07:15:25.128Z,101215.59
2023-11-23T07:17:53.377Z,101231.97
2023-11-23T07:20:21.483Z,101237.25
2023-11-23T07:22:49.411Z,101229.34
2023-11-23T07:25:18.380Z,101241.66
2023-11-23T07:27:46.394Z,101244.59
2023-11-23T07:30:15.359Z,101242.94
2023-11-23T07:32:44.757Z,101245.31
2023-11-23T07:35:13.629Z,101241.81
2023-11-23T07:37:41.572Z,101243.09
2023-11-23T07:40:15.449Z,101248.44
2023-11-23T07:42:45.109Z,101240.34
2023-11-23T07:45:13.803Z,101254.13
2023-11-23T07:47:44.605Z,101252.63
2023-11-23T07:50:12.774Z,101257.78
2023-11-23T07:52:40.762Z,101243.66
2023-11-23T07:55:11.234Z,101245.66
2023-11-23T07:57:39.462Z,101231.84
2023-11-23T08:00:09.337Z,101235.13
2023-11-23T08:02:37.652Z,101235.56
2023-11-23T08:05:09.933Z,101227.44
2023-11-23T08:07:37.978Z,101221.44
2023-11-23T08:10:10.588Z,101228.06
2023-11-23T08:12:39.082Z,101227.84
2023-11-23T08:15:08.364Z,101221.66
2023-11-23T08:17:36.749Z,101225.44
2023-11-23T08:20:07.465Z,101226.28
2023-11-23T08:22:37.362Z,101222.88
2023-11-23T08:25:05.984Z,101219.75
2023-11-23T08:27:35.810Z,101222.28
2023-11-23T08:30:05.274Z,101202.50
2023-11-23T08:32:33.274Z,101207.06
2023-11-23T08:35:02.314Z,101216.31
2023-11-23T08:37:30.265Z,101212.66
2023-11-23T08:39:59.646Z,101215.06
2023-11-23T08:42:27.432Z,101206.31
2023-11-23T08:44:55.429Z,101181.13
2023-11-23T08:47:23.413Z,101179.56
2023-11-23T08:49:51.410Z,101174.84
2023-11-23T08:52:19.717Z,101168.47
2023-11-23T08:54:47.796Z,101171.63
2023-11-23T08:57:17.331Z,101161.19
2023-11-23T08:59:46.138Z,101169.00
2023-11-23T09:02:20.400Z,101164.16
2023-11-23T09:04:50.240Z,101164.38
2023-11-23T09:07:18.721Z,101167.50
2023-11-23T09:09:46.935Z,101151.06
2023-11-23T09:12:15.036Z,101162.31
2023-11-23T09:14:49.389Z,101145.72
2023-11-23T09:17:18.504Z,101135.22
2023-11-23T09:19:47.493Z,101130.34
2023-11-23T09:22:15.512Z,101131.91
2023-11-23T09:24:43.978Z,101116.47
2023-11-23T09:27:12.480Z,101111.13
2023-11-23T09:29:40.583Z,101109.81
2023-11-23T09:32:10.283Z,101125.25
2023-11-23T09:34:38.219Z,101112.78
2023-11-23T09:37:07.475Z,101107.41
2023-11-23T09:39:36.227Z,101109.28
2023-11-23T09:42:06.904Z,101107.16
2023-11-23T09:44:37.592Z,101119.03
2023-11-23T09:47:10.121Z,101114.41
2023-11-23T09:49:39.213Z,101125.69
2023-11-23T09:52:08.450Z,101129.16
2023-11-23T09:54:37.280Z,101134.59
2023-11-23T09:57:06.032Z,101136.00
2023-11-23T09:59:34.107Z,101121.66
2023-11-23T10:02:07.101Z,101114.75
2023-11-23T10:04:36.567Z,101102.31
2023-11-23T10:07:04.873Z,101117.66
2023-11-23T10:09:35.357Z,101113.00
2023-11-23T10:12:04.616Z,101089.84
2023-11-23T10:14:32.536Z,101076.78
2023-11-23T10:17:00.556Z,101076.34
2023-11-23T10:19:27.533Z,101086.41
2023-11-23T10:22:00.985Z,101077.25
2023-11-23T10:24:29.593Z,101075.03
2023-11-23T10:26:58.024Z,101064.50
2023-11-23T10:29:29.691Z,101051.84
2023-11-23T10:32:00.632Z,101053.47
2023-11-23T10:34:29.961Z,101046.75
2023-11-23T10:37:00.097Z,101006.25
2023-11-23T10:39:29.118Z,101029.59
2023-11-23T10:41:57.970Z,101015.63
2023-11-23T10:44:27.713Z,101030.97
2023-11-23T10:46:59.876Z,101029.00
2023-11-23T10:49:28.518Z,101018.53
2023-11-23T10:51:56.733Z,101023.91
2023-11-23T10:54:26.080Z,101012.88
2023-11-23T10:56:53.937Z,101026.34
2023-11-23T10:59:22.183Z,101030.72
2023-11-23T11:01:51.612Z,101034.94
2023-11-23T11:04:19.718Z,101025.22
2023-11-23T11:06:48.658Z,101027.34
2023-11-23T11:09:18.473Z,101010.03
2023-11-23T11:11:55.294Z,101007.06
2023-11-23T11:14:32.743Z,101005.25
2023-11-23T11:17:05.475Z,101012.16
2023-11-23T11:19:44.648Z,100980.44
2023-11-23T11:22:15.002Z,100968.00
2023-11-23T11:24:46.080Z,100970.03
2023-11-23T11:27:15.785Z,100958.63
2023-11-23T11:29:52.149Z,100946.72
2023-11-23T11:32:22.620Z,100946.53
2023-11-23T11:35:01.999Z,100932.78
2023-11-23T11:37:32.318Z,100940.25
2023-11-23T11:40:01.320Z,100934.75
2023-11-23T11:42:32.020Z,100927.75
2023-11-23T11:45:00.333Z,100921.38
2023-11-23T11:47:30.768Z,100922.94
2023-11-23T11:49:59.313Z,100917.72
2023-11-23T11:52:28.044Z,100929.94
2023-11-23T11:54:56.113Z,100913.41
2023-11-23T11:57:24.094Z,100925.22
2023-11-23T11:59:54.700Z,100924.44
2023-11-23T12:02:22.708Z,100928.63
2023-11-23T12:04:59.046Z,100913.25
2023-11-23T12:07:27.400Z,100907.25
2023-11-23T12:09:56.278Z,100903.66
2023-11-23T12:12:24.303Z,100894.88
2023-11-23T12:14:54.291Z,100910.78
2023-11-23T12:17:23.237Z,100903.25
2023-11-23T12:19:52.467Z,100900.78
2023-11-23T12:22:21.802Z,100889.91
2023-11-23T12:24:49.761Z,100892.47
2023-11-23T12:27:17.873Z,100883.97
2023-11-23T12:29:46.004Z,100869.66
2023-11-23T12:32:15.955Z,100869.56
2023-11-23T12:34:44.570Z,100866.03
2023-11-23T12:37:12.589Z,100863.00
2023-11-23T12:39:40.702Z,100855.13
2023-11-23T12:42:08.714Z,100842.56
2023-11-23T12:44:37.254Z,100833.06
2023-11-23T12:47:04.987Z,100850.25
2023-11-23T12:49:34.942Z,100820.84
2023-11-23T12:52:03.179Z,100820.19
2023-11-23T12:54:31.693Z,100815.56
2023-11-23T12:57:00.017Z,100801.53
2023-11-23T12:59:27.949Z,100807.38
2023-11-23T13:01:58.901Z,100820.44
2023-11-23T13:04:30.550Z,100799.03
2023-11-23T13:07:00.281Z,100799.47
2023-11-23T13:09:29.482Z,100807.97
2023-11-23T13:11:59.643Z,100811.25
2023-11-23T13:14:27.825Z,100804.28
2023-11-23T13:16:55.793Z,100808.53
2023-11-23T13:19:30.633Z,100811.97
2023-11-23T13:22:06.973Z,100794.38
2023-11-23T13:24:37.184Z,100812.00
2023-11-23T13:27:05.550Z,100805.31
2023-11-23T13:29:33.495Z,100792.94
2023-11-23T13:32:01.616Z,100778.50
2023-11-23T13:34:29.557Z,100756.13
2023-11-23T13:36:57.534Z,100769.44
2023-11-23T13:39:28.584Z,100756.31
2023-11-23T13:41:57.779Z,100766.03
2023-11-23T13:44:25.771Z,100751.69
2023-11-23T13:46:54.163Z,100751.31
2023-11-23T13:49:22.767Z,100737.34
2023-11-23T13:51:50.860Z,100728.56
2023-11-23T13:54:19.023Z,100732.63
2023-11-23T13:56:48.369Z,100720.16
2023-11-23T13:59:16.157Z,100724.88
2023-11-23T14:01:44.285Z,100730.84
2023-11-23T14:04:14.203Z,100718.94
2023-11-23T14:06:43.226Z,100707.72
2023-11-23T14:09:19.242Z,100726.47
2023-11-23T14:11:51.498Z,100705.72
2023-11-23T14:14:19.403Z,100699.41
2023-11-23T14:16:47.391Z,100704.22
2023-11-23T14:19:17.429Z,100708.84
2023-11-23T14:21:47.338Z,100690.25
2023-11-23T14:24:16.453Z,100673.94
2023-11-23T14:26:44.628Z,100668.28
2023-11-23T14:29:13.936Z,100663.75
2023-11-23T14:31:41.788Z,100676.34
2023-11-23T14:34:09.860Z,100672.94
2023-11-23T14:36:37.986Z,100681.09
2023-11-23T14:39:06.898Z,100691.47
2023-11-23T14:41:36.636Z,100693.75
2023-11-23T14:44:05.371Z,100687.03
2023-11-23T14:46:34.738Z,100674.97
2023-11-23T14:49:03.138Z,100679.22
2023-11-23T14:51:31.434Z,100670.31
2023-11-23T14:54:07.094Z,100661.28
2023-11-23T14:56:38.691Z,100655.97
2023-11-23T14:59:07.967Z,100649.34
2023-11-23T15:01:38.041Z,100651.25
2023-11-23T15:04:08.169Z,100656.06
2023-11-23T15:06:36.562Z,100670.34
2023-11-23T15:09:05.844Z,100669.13
2023-11-23T15:11:33.695Z,100644.31
2023-11-23T15:14:01.681Z,100650.78
2023-11-23T15:16:31.614Z,100653.94
2023-11-23T15:19:01.562Z,100645.63
2023-11-23T15:21:30.860Z,100637.78
2023-11-23T15:24:01.494Z,100649.78
2023-11-23T15:26:30.447Z,100643.47
2023-11-23T15:29:00.353Z,100631.06
2023-11-23T15:31:28.600Z,100623.94
2023-11-23T15:33:57.082Z,100621.06
2023-11-23T15:36:26.443Z,100630.03
2023-11-23T15:38:54.198Z,100614.66
2023-11-23T15:41:22.248Z,100624.22
2023-11-23T15:43:50.207Z,100609.22
2023-11-23T15:46:18.222Z,100601.28
2023-11-23T15:48:46.257Z,100599.00
2023-11-23T15:51:15.541Z,100594.28
2023-11-23T15:53:44.692Z,100588.25
2023-11-23T15:56:15.874Z,100593.38
2023-11-23T15:58:44.447Z,100588.06
2023-11-23T16:01:12.640Z,100570.53
2023-11-23T16:03:40.710Z,100572.41
2023-11-23T16:06:10.582Z,100576.56
2023-11-23T16:08:39.076Z,100559.78
2023-11-23T16:11:09.550Z,100561.28
2023-11-23T16:13:39.658Z,100551.84
2023-11-23T16:16:08.403Z,100561.28
2023-11-23T16:18:39.726Z,100562.59
2023-11-23T16:21:08.289Z,100566.56
2023-11-23T16:23:36.352Z,100558.75
2023-11-23T16:26:05.850Z,100580.06
2023-11-23T16:28:35.142Z,100542.16
2023-11-23T16:31:05.916Z,100536.97
2023-11-23T16:33:33.962Z,100560.34
2023-11-23T16:36:02.001Z,100543.94
2023-11-23T16:38:30.717Z,100535.66
2023-11-23T16:40:59.024Z,100512.28
2023-11-23T16:43:27.321Z,100532.34
2023-11-23T16:45:56.752Z,100508.88
2023-11-23T16:48:24.827Z,100517.75
2023-11-23T16:50:52.818Z,100525.09
2023-11-23T16:53:20.818Z,100490.88
2023-11-23T16:55:48.870Z,100494.53
2023-11-23T16:58:16.820Z,100484.34
2023-11-23T17:00:45.021Z,100493.03
2023-11-23T17:03:15.126Z,100501.31
2023-11-23T17:05:43.819Z,100479.47
2023-11-23T17:08:12.658Z,100477.75
2023-11-23T17:10:40.796Z,100477.19
2023-11-23T17:13:11.985Z,100472.50
2023-11-23T17:15:40.259Z,100478.22
2023-11-23T17:18:08.327Z,100480.94
2023-11-23T17:20:37.726Z,100465.50
2023-11-23T17:23:06.335Z,100478.06
2023-11-23T17:25:39.832Z,100489.53
2023-11-23T17:28:08.455Z,100490.03
2023-11-23T17:30:36.942Z,100487.19
2023-11-23T17:33:05.004Z,100478.41
2023-11-23T17:35:33.069Z,100468.13
2023-11-23T17:38:02.378Z,100470.94
2023-11-23T17:40:30.341Z,100455.84
2023-11-23T17:42:58.548Z,100466.31
2023-11-23T17:45:26.544Z,100460.75
2023-11-23T17:47:55.771Z,100459.38
2023-11-23T17:50:24.068Z,100475.09
2023-11-23T17:52:52.434Z,100469.34
2023-11-23T17:55:21.787Z,100469.13
2023-11-23T17:57:50.099Z,100463.16
2023-11-23T18:00:19.415Z,100462.56
2023-11-23T18:02:47.609Z,100464.84
2023-11-23T18:05:15.908Z,100452.34
2023-11-23T18:07:43.893Z,100457.41
2023-11-23T18:10:15.658Z,100447.19
2023-11-23T18:12:46.114Z,100451.38
2023-11-23T18:15:15.151Z,100455.28
2023-11-23T18:17:44.016Z,100441.25
2023-11-23T18:20:14.374Z,100445.75
2023-11-23T18:22:42.404Z,100448.13
2023-11-23T18:25:10.633Z,100456.34
2023-11-23T18:27:39.050Z,100454.16
2023-11-23T18:30:10.101Z,100438.16
2023-11-23T18:32:38.218Z,100435.53
2023-11-23T18:35:06.657Z,100423.44
2023-11-23T18:37:34.621Z,100434.41
2023-11-23T18:40:13.862Z,100442.16
2023-11-23T18:42:43.503Z,100469.13
2023-11-23T18:45:16.108Z,100477.66
2023-11-23T18:47:44.272Z,100453.25
2023-11-23T18:50:12.724Z,100452.75
2023-11-23T18:52:41.388Z,100467.97
2023-11-23T18:55:10.897Z,100478.19
2023-11-23T18:57:39.132Z,100447.56
2023-11-23T19:00:09.990Z,100435.94
2023-11-23T19:02:40.041Z,100424.66
2023-11-23T19:05:09.120Z,100436.25
2023-11-23T19:07:37.058Z,100429.31
2023-11-23T19:10:08.383Z,100433.78
2023-11-23T19:12:36.321Z,100409.75
2023-11-23T19:15:06.998Z,100447.34
2023-11-23T19:17:35.466Z,100450.22
2023-11-23T19:20:06.738Z,100434.56
2023-11-23T19:22:35.411Z,100421.13
2023-11-23T19:25:06.184Z,100408.72
2023-11-23T19:27:34.620Z,100425.28
2023-11-23T19:30:03.254Z,100430.00
2023-11-23T19:32:31.752Z,100419.59
2023-11-23T19:35:00.260Z,100418.56
2023-11-23T19:37:30.686Z,100419.69
2023-11-23T19:39:59.132Z,100407.97
2023-11-23T19:42:28.023Z,100412.13
2023-11-23T19:44:56.517Z,100393.13
2023-11-23T19:47:25.260Z,100385.31
2023-11-23T19:49:53.747Z,100384.97
2023-11-23T19:52:26.094Z,100391.59
2023-11-23T19:54:58.424Z,100386.66
2023-11-23T19:57:27.123Z,100398.38
2023-11-23T19:59:55.542Z,100402.28
2023-11-23T20:02:23.614Z,100410.44
2023-11-23T20:04:52.320Z,100398.72
2023-11-23T20:07:20.283Z,100406.34
2023-11-23T20:09:48.657Z,100416.03
2023-11-23T20:12:18.164Z,100407.53
2023-11-23T20:14:46.285Z,100415.59
2023-11-23T20:17:14.269Z,100413.22
2023-11-23T20:19:43.838Z,100434.25
2023-11-23T20:22:11.823Z,100423.81
2023-11-23T20:24:39.824Z,100419.41
2023-11-23T20:27:07.800Z,100413.81
2023-11-23T20:29:37.116Z,100417.56
2023-11-23T20:32:06.027Z,100414.00
2023-11-23T20:34:34.109Z,100413.22
2023-11-23T20:37:02.080Z,100410.09
2023-11-23T20:39:32.209Z,100405.09
2023-11-23T20:42:00.404Z,100395.84
2023-11-23T20:44:28.436Z,100395.75
2023-11-23T20:46:57.809Z,100391.25
2023-11-23T20:49:26.169Z,100388.19
2023-11-23T20:51:54.744Z,100389.22
2023-11-23T20:54:23.539Z,100391.59
2023-11-23T20:56:56.326Z,100396.53
2023-11-23T20:59:25.359Z,100403.31
2023-11-23T21:01:54.995Z,100404.25
2023-11-23T21:04:29.209Z,100403.31
2023-11-23T21:07:02.245Z,100402.84
2023-11-23T21:09:31.591Z,100405.34
2023-11-23T21:12:03.338Z,100406.19
2023-11-23T21:14:33.135Z,100411.25
2023-11-23T21:17:01.907Z,100398.94
2023-11-23T21:19:31.233Z,100413.59
2023-11-23T21:21:59.223Z,100425.53
2023-11-23T21:24:27.244Z,100409.25
2023-11-23T21:26:55.218Z,100443.63
2023-11-23T21:29:23.193Z,100449.50
2023-11-23T21:31:51.178Z,100457.53
2023-11-23T21:34:19.185Z,100423.53
2023-11-23T21:36:48.518Z,100414.59
2023-11-23T21:39:17.372Z,100419.97
2023-11-23T21:41:47.801Z,100420.06
2023-11-23T21:44:16.495Z,100422.06
2023-11-23T21:46:44.549Z,100414.56
2023-11-23T21:49:12.514Z,100414.44
2023-11-23T21:51:40.509Z,100408.63
2023-11-23T21:54:11.193Z,100415.75
2023-11-23T21:56:39.781Z,100418.91
2023-11-23T21:59:07.785Z,100418.06
2023-11-23T22:01:35.860Z,100422.56
2023-11-23T22:04:04.987Z,100419.44
2023-11-23T22:06:33.080Z,100433.00
2023-11-23T22:09:01.910Z,100435.16
2023-11-23T22:11:31.216Z,100431.63
2023-11-23T22:13:59.195Z,100427.66
2023-11-23T22:16:28.543Z,100431.41
2023-11-23T22:18:57.923Z,100424.09
2023-11-23T22:21:26.365Z,100421.06
2023-11-23T22:23:54.805Z,100415.16
2023-11-23T22:26:24.536Z,100418.56
2023-11-23T22:28:54.637Z,100416.59
2023-11-23T22:31:23.644Z,100411.91
2023-11-23T22:33:52.214Z,100424.09
2023-11-23T22:36:20.775Z,100414.25
2023-11-23T22:38:49.994Z,100426.66
2023-11-23T22:41:19.622Z,100440.56
2023-11-23T22:43:49.808Z,100431.91
2023-11-23T22:46:20.204Z,100431.41
2023-11-23T22:48:48.264Z,100442.53
2023-11-23T22:51:16.696Z,100448.41
2023-11-23T22:53:45.262Z,100449.91
2023-11-23T22:56:14.383Z,100464.22
2023-11-23T22:58:43.405Z,100443.44
2023-11-23T23:01:11.533Z,100445.56
2023-11-23T23:03:41.499Z,100444.50
2023-11-23T23:06:10.339Z,100446.50
2023-11-23T23:08:39.802Z,100424.53
2023-11-23T23:11:09.742Z,100421.13
2023-11-23T23:13:37.724Z,100408.41
2023-11-23T23:16:06.364Z,100425.22
2023-11-23T23:18:34.388Z,100426.91
2023-11-23T23:21:03.776Z,100412.53
2023-11-23T23:23:32.281Z,100417.47
2023-11-23T23:26:00.307Z,100436.91
2023-11-23T23:28:32.110Z,100443.06
2023-11-23T23:31:00.853Z,100445.88
2023-11-23T23:33:28.939Z,100431.94
2023-11-23T23:35:58.210Z,100437.38
2023-11-23T23:38:27.522Z,100421.03
2023-11-23T23:40:55.503Z,100413.66
2023-11-23T23:43:23.829Z,100428.94
2023-11-23T23:45:52.017Z,100430.44
2023-11-23T23:48:20.130Z,100431.34
2023-11-23T23:50:48.163Z,100431.00
2023-11-23T23:53:16.267Z,100433.72
2023-11-23T23:55:47.039Z,100446.81
2023-11-23T23:58:16.313Z,100437.69
